sensor_id;sensor_type;location;lat;lon;timestamp;temperature;humidity
43049;DHT22;28673;44.412;11.918;2023-06-04T00:02:05;18.40;99.90
43049;DHT22;28673;44.412;11.918;2023-06-04T00:04:31;18.40;99.90
43049;DHT22;28673;44.412;11.918;2023-06-04T00:06:56;18.50;99.90
43049;DHT22;28673;44.412;11.918;2023-06-04T00:09:22;18.40;99.90
43049;DHT22;28673;44.412;11.918;2023-06-04T00:11:48;18.40;99.90
43049;DHT22;28673;44.412;11.918;2023-06-04T00:14:14;18.40;99.90
43049;DHT22;28673;44.412;11.918;2023-06-04T00:16:41;18.40;99.90
43049;DHT22;28673;44.412;11.918;2023-06-04T00:19:07;18.40;99.90
43049;DHT22;28673;44.412;11.918;2023-06-04T00:21:34;18.50;99.90
43049;DHT22;28673;44.412;11.918;2023-06-04T00:24:01;18.40;99.90
43049;DHT22;28673;44.412;11.918;2023-06-04T00:26:27;18.40;99.90
43049;DHT22;28673;44.412;11.918;2023-06-04T00:28:54;18.50;99.90
43049;DHT22;28673;44.412;11.918;2023-06-04T00:31:20;18.40;99.90
43049;DHT22;28673;44.412;11.918;2023-06-04T00:33:50;18.40;99.90
43049;DHT22;28673;44.412;11.918;2023-06-04T00:36:16;18.40;99.90
43049;DHT22;28673;44.412;11.918;2023-06-04T00:38:41;18.40;99.90
43049;DHT22;28673;44.412;11.918;2023-06-04T00:41:08;18.40;99.90
43049;DHT22;28673;44.412;11.918;2023-06-04T00:43:33;18.40;99.90
43049;DHT22;28673;44.412;11.918;2023-06-04T00:46:01;18.40;99.90
43049;DHT22;28673;44.412;11.918;2023-06-04T00:48:30;18.30;99.90
43049;DHT22;28673;44.412;11.918;2023-06-04T00:50:57;18.30;99.90
43049;DHT22;28673;44.412;11.918;2023-06-04T00:53:24;18.30;99.90
43049;DHT22;28673;44.412;11.918;2023-06-04T00:55:50;18.30;99.90
43049;DHT22;28673;44.412;11.918;2023-06-04T00:58:17;18.30;99.90
43049;DHT22;28673;44.412;11.918;2023-06-04T01:00:44;18.30;99.90
43049;DHT22;28673;44.412;11.918;2023-06-04T01:03:14;18.30;99.90
43049;DHT22;28673;44.412;11.918;2023-06-04T01:08:08;18.20;99.90
43049;DHT22;28673;44.412;11.918;2023-06-04T01:10:35;18.20;99.90
43049;DHT22;28673;44.412;11.918;2023-06-04T01:13:01;18.10;99.90
43049;DHT22;28673;44.412;11.918;2023-06-04T01:15:27;18.10;99.90
43049;DHT22;28673;44.412;11.918;2023-06-04T01:17:58;18.10;99.90
43049;DHT22;28673;44.412;11.918;2023-06-04T01:23:26;18.10;99.90
43049;DHT22;28673;44.412;11.918;2023-06-04T01:26:04;18.00;99.90
43049;DHT22;28673;44.412;11.918;2023-06-04T01:28:32;18.00;99.90
43049;DHT22;28673;44.412;11.918;2023-06-04T01:30:58;18.00;99.90
43049;DHT22;28673;44.412;11.918;2023-06-04T01:33:26;18.00;99.90
43049;DHT22;28673;44.412;11.918;2023-06-04T01:35:53;18.00;99.90
43049;DHT22;28673;44.412;11.918;2023-06-04T01:38:19;17.90;99.90
43049;DHT22;28673;44.412;11.918;2023-06-04T01:40:46;17.90;99.90
43049;DHT22;28673;44.412;11.918;2023-06-04T01:43:12;17.90;99.90
43049;DHT22;28673;44.412;11.918;2023-06-04T01:45:38;17.90;99.90
43049;DHT22;28673;44.412;11.918;2023-06-04T01:48:05;17.90;99.90
43049;DHT22;28673;44.412;11.918;2023-06-04T01:50:31;17.90;99.90
43049;DHT22;28673;44.412;11.918;2023-06-04T01:52:58;17.80;99.90
43049;DHT22;28673;44.412;11.918;2023-06-04T01:55:24;17.80;99.90
43049;DHT22;28673;44.412;11.918;2023-06-04T01:57:55;17.80;99.90
43049;DHT22;28673;44.412;11.918;2023-06-04T02:00:21;17.80;99.90
43049;DHT22;28673;44.412;11.918;2023-06-04T02:02:51;17.70;99.90
43049;DHT22;28673;44.412;11.918;2023-06-04T02:05:18;17.70;99.90
43049;DHT22;28673;44.412;11.918;2023-06-04T02:07:45;17.70;99.90
43049;DHT22;28673;44.412;11.918;2023-06-04T02:10:15;17.70;99.90
43049;DHT22;28673;44.412;11.918;2023-06-04T02:13:02;17.60;99.90
43049;DHT22;28673;44.412;11.918;2023-06-04T02:15:29;17.70;99.90
43049;DHT22;28673;44.412;11.918;2023-06-04T02:17:59;17.60;99.90
43049;DHT22;28673;44.412;11.918;2023-06-04T02:20:28;17.60;99.90
43049;DHT22;28673;44.412;11.918;2023-06-04T02:22:57;17.60;99.90
43049;DHT22;28673;44.412;11.918;2023-06-04T02:25:25;17.60;99.90
43049;DHT22;28673;44.412;11.918;2023-06-04T02:27:51;17.70;99.90
43049;DHT22;28673;44.412;11.918;2023-06-04T02:30:17;17.60;99.90
43049;DHT22;28673;44.412;11.918;2023-06-04T02:32:43;17.60;99.90
43049;DHT22;28673;44.412;11.918;2023-06-04T02:35:10;17.60;99.90
43049;DHT22;28673;44.412;11.918;2023-06-04T02:37:36;17.60;99.90
43049;DHT22;28673;44.412;11.918;2023-06-04T02:40:02;17.60;99.90
43049;DHT22;28673;44.412;11.918;2023-06-04T02:42:29;17.60;99.90
43049;DHT22;28673;44.412;11.918;2023-06-04T02:44:55;17.70;99.90
43049;DHT22;28673;44.412;11.918;2023-06-04T02:47:21;17.70;99.90
43049;DHT22;28673;44.412;11.918;2023-06-04T02:49:47;17.70;99.90
43049;DHT22;28673;44.412;11.918;2023-06-04T02:52:13;17.70;99.90
43049;DHT22;28673;44.412;11.918;2023-06-04T02:54:38;17.70;99.90
43049;DHT22;28673;44.412;11.918;2023-06-04T02:57:04;17.70;99.90
43049;DHT22;28673;44.412;11.918;2023-06-04T02:59:31;17.70;99.90
43049;DHT22;28673;44.412;11.918;2023-06-04T03:01:58;17.70;99.90
43049;DHT22;28673;44.412;11.918;2023-06-04T03:04:23;17.70;99.90
43049;DHT22;28673;44.412;11.918;2023-06-04T03:06:49;17.70;99.90
43049;DHT22;28673;44.412;11.918;2023-06-04T03:09:23;17.70;99.90
43049;DHT22;28673;44.412;11.918;2023-06-04T03:11:49;17.70;99.90
43049;DHT22;28673;44.412;11.918;2023-06-04T03:14:15;17.70;99.90
43049;DHT22;28673;44.412;11.918;2023-06-04T03:16:41;17.60;99.90
43049;DHT22;28673;44.412;11.918;2023-06-04T03:19:08;17.70;99.90
43049;DHT22;28673;44.412;11.918;2023-06-04T03:21:34;17.60;99.90
43049;DHT22;28673;44.412;11.918;2023-06-04T03:24:00;17.60;99.90
43049;DHT22;28673;44.412;11.918;2023-06-04T03:26:26;17.60;99.90
43049;DHT22;28673;44.412;11.918;2023-06-04T03:28:53;17.60;99.90
43049;DHT22;28673;44.412;11.918;2023-06-04T03:31:20;17.60;99.90
43049;DHT22;28673;44.412;11.918;2023-06-04T03:33:48;17.60;99.90
43049;DHT22;28673;44.412;11.918;2023-06-04T03:36:14;17.50;99.90
43049;DHT22;28673;44.412;11.918;2023-06-04T03:38:42;17.50;99.90
43049;DHT22;28673;44.412;11.918;2023-06-04T03:41:08;17.50;99.90
43049;DHT22;28673;44.412;11.918;2023-06-04T03:43:34;17.50;99.90
43049;DHT22;28673;44.412;11.918;2023-06-04T03:46:04;17.40;99.90
43049;DHT22;28673;44.412;11.918;2023-06-04T03:48:31;17.40;99.90
43049;DHT22;28673;44.412;11.918;2023-06-04T03:50:56;17.40;99.90
43049;DHT22;28673;44.412;11.918;2023-06-04T03:53:23;17.40;99.90
43049;DHT22;28673;44.412;11.918;2023-06-04T03:55:50;17.40;99.90
43049;DHT22;28673;44.412;11.918;2023-06-04T03:58:16;17.40;99.90
43049;DHT22;28673;44.412;11.918;2023-06-04T04:00:46;17.40;99.90
43049;DHT22;28673;44.412;11.918;2023-06-04T04:03:12;17.40;99.90
43049;DHT22;28673;44.412;11.918;2023-06-04T04:05:39;17.30;99.90
43049;DHT22;28673;44.412;11.918;2023-06-04T04:10:33;17.30;99.90
43049;DHT22;28673;44.412;11.918;2023-06-04T04:12:59;17.30;99.90
43049;DHT22;28673;44.412;11.918;2023-06-04T04:15:28;17.30;99.90
43049;DHT22;28673;44.412;11.918;2023-06-04T04:17:55;17.30;99.90
43049;DHT22;28673;44.412;11.918;2023-06-04T04:20:21;17.30;99.90
43049;DHT22;28673;44.412;11.918;2023-06-04T04:22:53;17.30;99.90
43049;DHT22;28673;44.412;11.918;2023-06-04T04:25:20;17.30;99.90
43049;DHT22;28673;44.412;11.918;2023-06-04T04:27:46;17.30;99.90
43049;DHT22;28673;44.412;11.918;2023-06-04T04:30:14;17.30;99.90
43049;DHT22;28673;44.412;11.918;2023-06-04T04:32:42;17.30;99.90
43049;DHT22;28673;44.412;11.918;2023-06-04T04:35:16;17.40;99.90
43049;DHT22;28673;44.412;11.918;2023-06-04T04:37:46;17.40;99.90
43049;DHT22;28673;44.412;11.918;2023-06-04T04:40:14;17.40;99.90
43049;DHT22;28673;44.412;11.918;2023-06-04T04:42:43;17.40;99.90
43049;DHT22;28673;44.412;11.918;2023-06-04T04:45:11;17.50;99.90
43049;DHT22;28673;44.412;11.918;2023-06-04T04:47:38;17.40;99.90
43049;DHT22;28673;44.412;11.918;2023-06-04T04:50:04;17.40;99.90
43049;DHT22;28673;44.412;11.918;2023-06-04T04:52:30;17.50;99.90
43049;DHT22;28673;44.412;11.918;2023-06-04T04:54:57;17.50;99.90
43049;DHT22;28673;44.412;11.918;2023-06-04T04:57:26;17.50;99.90
43049;DHT22;28673;44.412;11.918;2023-06-04T04:59:53;17.60;99.90
43049;DHT22;28673;44.412;11.918;2023-06-04T05:02:19;17.60;99.90
43049;DHT22;28673;44.412;11.918;2023-06-04T05:04:46;17.60;99.90
43049;DHT22;28673;44.412;11.918;2023-06-04T05:07:13;17.70;99.90
43049;DHT22;28673;44.412;11.918;2023-06-04T05:09:40;17.70;99.90
43049;DHT22;28673;44.412;11.918;2023-06-04T05:12:07;17.80;99.90
43049;DHT22;28673;44.412;11.918;2023-06-04T05:14:33;17.80;99.90
43049;DHT22;28673;44.412;11.918;2023-06-04T05:17:02;17.90;99.90
43049;DHT22;28673;44.412;11.918;2023-06-04T05:19:32;18.00;99.90
43049;DHT22;28673;44.412;11.918;2023-06-04T05:22:00;18.00;99.90
43049;DHT22;28673;44.412;11.918;2023-06-04T05:24:28;18.10;99.90
43049;DHT22;28673;44.412;11.918;2023-06-04T05:26:57;18.20;99.90
43049;DHT22;28673;44.412;11.918;2023-06-04T05:29:24;18.30;99.90
43049;DHT22;28673;44.412;11.918;2023-06-04T05:31:51;18.30;99.90
43049;DHT22;28673;44.412;11.918;2023-06-04T05:34:19;18.40;99.90
43049;DHT22;28673;44.412;11.918;2023-06-04T05:36:48;18.50;99.90
43049;DHT22;28673;44.412;11.918;2023-06-04T05:39:14;18.60;99.90
43049;DHT22;28673;44.412;11.918;2023-06-04T05:41:50;18.60;99.90
43049;DHT22;28673;44.412;11.918;2023-06-04T05:44:16;18.80;99.90
43049;DHT22;28673;44.412;11.918;2023-06-04T05:46:43;18.80;99.90
43049;DHT22;28673;44.412;11.918;2023-06-04T05:49:09;18.90;99.90
43049;DHT22;28673;44.412;11.918;2023-06-04T05:51:36;19.00;99.90
43049;DHT22;28673;44.412;11.918;2023-06-04T05:54:02;19.10;99.90
43049;DHT22;28673;44.412;11.918;2023-06-04T05:56:30;19.20;99.90
43049;DHT22;28673;44.412;11.918;2023-06-04T05:58:58;19.30;99.90
43049;DHT22;28673;44.412;11.918;2023-06-04T06:01:26;19.40;99.90
43049;DHT22;28673;44.412;11.918;2023-06-04T06:03:52;19.40;99.90
43049;DHT22;28673;44.412;11.918;2023-06-04T06:06:20;19.50;99.90
43049;DHT22;28673;44.412;11.918;2023-06-04T06:08:46;19.60;99.90
43049;DHT22;28673;44.412;11.918;2023-06-04T06:11:12;19.70;99.90
43049;DHT22;28673;44.412;11.918;2023-06-04T06:13:39;19.90;99.90
43049;DHT22;28673;44.412;11.918;2023-06-04T06:16:06;20.00;99.90
43049;DHT22;28673;44.412;11.918;2023-06-04T06:18:32;20.10;99.90
43049;DHT22;28673;44.412;11.918;2023-06-04T06:20:58;20.20;99.90
43049;DHT22;28673;44.412;11.918;2023-06-04T06:23:24;20.30;99.90
43049;DHT22;28673;44.412;11.918;2023-06-04T06:25:50;20.40;99.90
43049;DHT22;28673;44.412;11.918;2023-06-04T06:28:22;20.50;99.90
43049;DHT22;28673;44.412;11.918;2023-06-04T06:30:49;20.70;99.90
43049;DHT22;28673;44.412;11.918;2023-06-04T06:33:15;20.80;99.90
43049;DHT22;28673;44.412;11.918;2023-06-04T06:35:41;20.90;99.90
43049;DHT22;28673;44.412;11.918;2023-06-04T06:38:07;21.00;99.90
43049;DHT22;28673;44.412;11.918;2023-06-04T06:40:33;21.20;99.90
43049;DHT22;28673;44.412;11.918;2023-06-04T06:42:59;21.30;99.90
43049;DHT22;28673;44.412;11.918;2023-06-04T06:45:25;21.50;99.90
43049;DHT22;28673;44.412;11.918;2023-06-04T06:47:51;21.60;99.90
43049;DHT22;28673;44.412;11.918;2023-06-04T06:50:17;21.80;99.90
43049;DHT22;28673;44.412;11.918;2023-06-04T06:52:43;22.00;99.90
43049;DHT22;28673;44.412;11.918;2023-06-04T06:55:09;22.10;99.90
43049;DHT22;28673;44.412;11.918;2023-06-04T06:57:35;22.30;99.90
43049;DHT22;28673;44.412;11.918;2023-06-04T07:00:01;22.40;99.90
43049;DHT22;28673;44.412;11.918;2023-06-04T07:02:27;22.50;99.90
43049;DHT22;28673;44.412;11.918;2023-06-04T07:04:54;22.60;99.90
43049;DHT22;28673;44.412;11.918;2023-06-04T07:07:20;22.70;99.90
43049;DHT22;28673;44.412;11.918;2023-06-04T07:09:46;22.80;99.90
43049;DHT22;28673;44.412;11.918;2023-06-04T07:12:12;22.90;99.90
43049;DHT22;28673;44.412;11.918;2023-06-04T07:14:38;23.00;99.90
43049;DHT22;28673;44.412;11.918;2023-06-04T07:17:04;23.00;99.90
43049;DHT22;28673;44.412;11.918;2023-06-04T07:19:29;23.10;99.90
43049;DHT22;28673;44.412;11.918;2023-06-04T07:21:55;23.20;99.90
43049;DHT22;28673;44.412;11.918;2023-06-04T07:24:22;23.20;99.90
43049;DHT22;28673;44.412;11.918;2023-06-04T07:26:48;23.40;99.90
43049;DHT22;28673;44.412;11.918;2023-06-04T07:29:14;23.50;99.90
43049;DHT22;28673;44.412;11.918;2023-06-04T07:31:41;23.70;99.90
43049;DHT22;28673;44.412;11.918;2023-06-04T07:34:07;23.90;99.90
43049;DHT22;28673;44.412;11.918;2023-06-04T07:36:33;24.00;99.90
43049;DHT22;28673;44.412;11.918;2023-06-04T07:38:59;24.00;99.90
43049;DHT22;28673;44.412;11.918;2023-06-04T07:41:25;24.10;99.90
43049;DHT22;28673;44.412;11.918;2023-06-04T07:43:52;24.20;99.90
43049;DHT22;28673;44.412;11.918;2023-06-04T07:46:21;24.20;99.90
43049;DHT22;28673;44.412;11.918;2023-06-04T07:48:47;24.30;99.90
43049;DHT22;28673;44.412;11.918;2023-06-04T07:51:14;24.30;99.90
43049;DHT22;28673;44.412;11.918;2023-06-04T07:53:40;24.40;99.90
43049;DHT22;28673;44.412;11.918;2023-06-04T07:56:06;24.40;99.90
43049;DHT22;28673;44.412;11.918;2023-06-04T07:58:32;24.50;99.90
43049;DHT22;28673;44.412;11.918;2023-06-04T08:00:58;24.60;99.90
43049;DHT22;28673;44.412;11.918;2023-06-04T08:03:24;24.70;99.90
43049;DHT22;28673;44.412;11.918;2023-06-04T08:05:50;24.80;99.90
43049;DHT22;28673;44.412;11.918;2023-06-04T08:08:16;24.90;99.90
43049;DHT22;28673;44.412;11.918;2023-06-04T08:10:42;25.10;99.90
43049;DHT22;28673;44.412;11.918;2023-06-04T08:13:08;25.20;99.90
43049;DHT22;28673;44.412;11.918;2023-06-04T08:15:36;25.30;99.90
43049;DHT22;28673;44.412;11.918;2023-06-04T08:18:05;25.50;99.90
43049;DHT22;28673;44.412;11.918;2023-06-04T08:20:31;25.60;99.90
43049;DHT22;28673;44.412;11.918;2023-06-04T08:22:56;25.80;99.90
43049;DHT22;28673;44.412;11.918;2023-06-04T08:25:22;26.00;99.90
43049;DHT22;28673;44.412;11.918;2023-06-04T08:27:48;26.10;99.90
43049;DHT22;28673;44.412;11.918;2023-06-04T08:30:14;26.20;99.90
43049;DHT22;28673;44.412;11.918;2023-06-04T08:32:40;26.40;99.90
43049;DHT22;28673;44.412;11.918;2023-06-04T08:35:07;26.60;99.90
43049;DHT22;28673;44.412;11.918;2023-06-04T08:37:33;26.90;99.90
43049;DHT22;28673;44.412;11.918;2023-06-04T08:39:59;27.20;99.90
43049;DHT22;28673;44.412;11.918;2023-06-04T08:42:30;27.40;99.90
43049;DHT22;28673;44.412;11.918;2023-06-04T08:44:57;27.50;99.90
43049;DHT22;28673;44.412;11.918;2023-06-04T08:47:25;27.80;99.90
43049;DHT22;28673;44.412;11.918;2023-06-04T08:49:58;28.00;99.90
43049;DHT22;28673;44.412;11.918;2023-06-04T08:52:25;28.30;99.90
43049;DHT22;28673;44.412;11.918;2023-06-04T08:54:54;28.60;99.90
43049;DHT22;28673;44.412;11.918;2023-06-04T08:57:20;28.80;99.90
43049;DHT22;28673;44.412;11.918;2023-06-04T08:59:47;28.90;99.90
43049;DHT22;28673;44.412;11.918;2023-06-04T09:02:16;29.00;99.90
43049;DHT22;28673;44.412;11.918;2023-06-04T09:04:43;29.00;99.90
43049;DHT22;28673;44.412;11.918;2023-06-04T09:07:11;28.90;99.90
43049;DHT22;28673;44.412;11.918;2023-06-04T09:09:39;28.90;99.90
43049;DHT22;28673;44.412;11.918;2023-06-04T09:12:10;29.00;99.90
43049;DHT22;28673;44.412;11.918;2023-06-04T09:14:37;29.00;99.90
43049;DHT22;28673;44.412;11.918;2023-06-04T09:17:03;29.00;99.90
43049;DHT22;28673;44.412;11.918;2023-06-04T09:19:29;29.10;99.90
43049;DHT22;28673;44.412;11.918;2023-06-04T09:21:57;29.00;99.90
43049;DHT22;28673;44.412;11.918;2023-06-04T09:24:24;29.10;99.90
43049;DHT22;28673;44.412;11.918;2023-06-04T09:26:51;29.20;99.90
43049;DHT22;28673;44.412;11.918;2023-06-04T09:29:18;29.30;99.90
43049;DHT22;28673;44.412;11.918;2023-06-04T09:31:57;29.30;99.70
43049;DHT22;28673;44.412;11.918;2023-06-04T09:34:29;29.40;99.60
43049;DHT22;28673;44.412;11.918;2023-06-04T09:36:55;29.60;99.60
43049;DHT22;28673;44.412;11.918;2023-06-04T09:39:22;29.70;99.50
43049;DHT22;28673;44.412;11.918;2023-06-04T09:42:02;30.00;99.60
43049;DHT22;28673;44.412;11.918;2023-06-04T09:44:31;30.30;98.90
43049;DHT22;28673;44.412;11.918;2023-06-04T09:46:58;30.70;98.90
43049;DHT22;28673;44.412;11.918;2023-06-04T09:49:24;30.80;98.40
43049;DHT22;28673;44.412;11.918;2023-06-04T09:51:50;31.00;98.00
43049;DHT22;28673;44.412;11.918;2023-06-04T09:54:16;31.10;97.60
43049;DHT22;28673;44.412;11.918;2023-06-04T09:56:42;31.10;97.40
43049;DHT22;28673;44.412;11.918;2023-06-04T09:59:09;31.10;97.30
43049;DHT22;28673;44.412;11.918;2023-06-04T10:01:38;31.20;97.30
43049;DHT22;28673;44.412;11.918;2023-06-04T10:04:07;31.20;97.00
43049;DHT22;28673;44.412;11.918;2023-06-04T10:06:35;31.30;96.90
43049;DHT22;28673;44.412;11.918;2023-06-04T10:09:08;31.30;96.70
43049;DHT22;28673;44.412;11.918;2023-06-04T10:11:40;31.40;96.60
43049;DHT22;28673;44.412;11.918;2023-06-04T10:14:14;31.50;96.30
43049;DHT22;28673;44.412;11.918;2023-06-04T10:16:44;31.50;95.70
43049;DHT22;28673;44.412;11.918;2023-06-04T10:19:10;31.40;95.80
43049;DHT22;28673;44.412;11.918;2023-06-04T10:21:37;31.30;95.90
43049;DHT22;28673;44.412;11.918;2023-06-04T10:24:03;31.10;96.10
43049;DHT22;28673;44.412;11.918;2023-06-04T10:26:30;31.00;96.30
43049;DHT22;28673;44.412;11.918;2023-06-04T10:28:58;30.90;95.90
43049;DHT22;28673;44.412;11.918;2023-06-04T10:31:26;30.90;96.00
43049;DHT22;28673;44.412;11.918;2023-06-04T10:33:55;30.90;95.80
43049;DHT22;28673;44.412;11.918;2023-06-04T10:36:23;31.00;95.70
43049;DHT22;28673;44.412;11.918;2023-06-04T10:38:52;31.20;95.50
43049;DHT22;28673;44.412;11.918;2023-06-04T10:41:19;31.30;95.00
43049;DHT22;28673;44.412;11.918;2023-06-04T10:43:48;31.20;95.00
43049;DHT22;28673;44.412;11.918;2023-06-04T10:46:16;31.20;95.30
43049;DHT22;28673;44.412;11.918;2023-06-04T10:48:50;31.20;94.80
43049;DHT22;28673;44.412;11.918;2023-06-04T10:51:32;31.50;94.50
43049;DHT22;28673;44.412;11.918;2023-06-04T10:53:59;31.80;94.30
43049;DHT22;28673;44.412;11.918;2023-06-04T10:58:52;32.30;92.70
43049;DHT22;28673;44.412;11.918;2023-06-04T11:01:28;32.40;92.80
43049;DHT22;28673;44.412;11.918;2023-06-04T11:03:58;32.30;91.60
43049;DHT22;28673;44.412;11.918;2023-06-04T11:06:24;32.20;91.70
43049;DHT22;28673;44.412;11.918;2023-06-04T11:09:05;32.10;92.30
43049;DHT22;28673;44.412;11.918;2023-06-04T11:11:31;32.10;91.60
43049;DHT22;28673;44.412;11.918;2023-06-04T11:14:12;32.30;92.20
43049;DHT22;28673;44.412;11.918;2023-06-04T11:16:38;32.40;90.80
43049;DHT22;28673;44.412;11.918;2023-06-04T11:19:04;32.60;90.90
43049;DHT22;28673;44.412;11.918;2023-06-04T11:21:30;32.60;89.50
43049;DHT22;28673;44.412;11.918;2023-06-04T11:24:00;32.30;90.10
43049;DHT22;28673;44.412;11.918;2023-06-04T11:26:30;32.40;89.40
43049;DHT22;28673;44.412;11.918;2023-06-04T11:29:00;32.30;89.60
43049;DHT22;28673;44.412;11.918;2023-06-04T11:31:27;32.30;89.90
43049;DHT22;28673;44.412;11.918;2023-06-04T11:33:53;32.30;89.70
43049;DHT22;28673;44.412;11.918;2023-06-04T11:36:29;32.40;89.70
43049;DHT22;28673;44.412;11.918;2023-06-04T11:41:27;32.50;88.80
43049;DHT22;28673;44.412;11.918;2023-06-04T11:43:53;32.70;88.50
43049;DHT22;28673;44.412;11.918;2023-06-04T11:46:19;33.00;87.30
43049;DHT22;28673;44.412;11.918;2023-06-04T11:48:45;33.30;86.50
43049;DHT22;28673;44.412;11.918;2023-06-04T11:51:12;33.60;86.00
43049;DHT22;28673;44.412;11.918;2023-06-04T11:53:38;33.90;85.70
43049;DHT22;28673;44.412;11.918;2023-06-04T11:56:05;34.20;85.70
43049;DHT22;28673;44.412;11.918;2023-06-04T11:58:32;34.40;86.00
43049;DHT22;28673;44.412;11.918;2023-06-04T12:00:58;34.40;84.80
43049;DHT22;28673;44.412;11.918;2023-06-04T12:03:38;34.10;84.70
43049;DHT22;28673;44.412;11.918;2023-06-04T12:06:17;34.20;86.20
43049;DHT22;28673;44.412;11.918;2023-06-04T12:08:52;34.10;85.80
43049;DHT22;28673;44.412;11.918;2023-06-04T12:11:32;34.20;86.00
43049;DHT22;28673;44.412;11.918;2023-06-04T12:14:00;34.50;85.00
43049;DHT22;28673;44.412;11.918;2023-06-04T12:16:27;34.90;85.40
43049;DHT22;28673;44.412;11.918;2023-06-04T12:19:04;35.20;85.30
43049;DHT22;28673;44.412;11.918;2023-06-04T12:21:32;35.40;85.00
43049;DHT22;28673;44.412;11.918;2023-06-04T12:24:10;35.60;83.60
43049;DHT22;28673;44.412;11.918;2023-06-04T12:26:37;35.60;79.80
43049;DHT22;28673;44.412;11.918;2023-06-04T12:29:17;35.70;82.40
43049;DHT22;28673;44.412;11.918;2023-06-04T12:31:46;35.70;78.40
43049;DHT22;28673;44.412;11.918;2023-06-04T12:34:15;35.70;80.50
43049;DHT22;28673;44.412;11.918;2023-06-04T12:36:43;35.80;80.80
43049;DHT22;28673;44.412;11.918;2023-06-04T12:39:09;35.90;80.60
43049;DHT22;28673;44.412;11.918;2023-06-04T12:41:34;35.90;80.80
43049;DHT22;28673;44.412;11.918;2023-06-04T12:44:01;36.00;80.00
43049;DHT22;28673;44.412;11.918;2023-06-04T12:46:28;36.00;79.40
43049;DHT22;28673;44.412;11.918;2023-06-04T12:48:54;35.90;77.90
43049;DHT22;28673;44.412;11.918;2023-06-04T12:51:21;36.00;79.20
43049;DHT22;28673;44.412;11.918;2023-06-04T12:53:48;35.90;78.00
43049;DHT22;28673;44.412;11.918;2023-06-04T12:56:14;35.90;77.30
43049;DHT22;28673;44.412;11.918;2023-06-04T12:58:40;35.90;76.50
43049;DHT22;28673;44.412;11.918;2023-06-04T13:01:06;35.80;76.00
43049;DHT22;28673;44.412;11.918;2023-06-04T13:03:32;35.50;76.10
43049;DHT22;28673;44.412;11.918;2023-06-04T13:05:58;35.30;75.30
43049;DHT22;28673;44.412;11.918;2023-06-04T13:08:24;35.20;78.10
43049;DHT22;28673;44.412;11.918;2023-06-04T13:10:51;34.80;80.20
43049;DHT22;28673;44.412;11.918;2023-06-04T13:13:18;34.60;81.80
43049;DHT22;28673;44.412;11.918;2023-06-04T13:15:44;34.50;82.50
43049;DHT22;28673;44.412;11.918;2023-06-04T13:18:11;34.30;83.20
43049;DHT22;28673;44.412;11.918;2023-06-04T13:20:37;34.20;84.00
43049;DHT22;28673;44.412;11.918;2023-06-04T13:23:03;34.10;84.40
43049;DHT22;28673;44.412;11.918;2023-06-04T13:25:29;34.00;84.50
43049;DHT22;28673;44.412;11.918;2023-06-04T13:28:07;33.80;85.20
43049;DHT22;28673;44.412;11.918;2023-06-04T13:30:36;33.30;85.40
43049;DHT22;28673;44.412;11.918;2023-06-04T13:33:03;33.00;86.00
43049;DHT22;28673;44.412;11.918;2023-06-04T13:35:29;32.70;86.90
43049;DHT22;28673;44.412;11.918;2023-06-04T13:37:55;32.40;87.10
43049;DHT22;28673;44.412;11.918;2023-06-04T13:40:21;32.10;88.10
43049;DHT22;28673;44.412;11.918;2023-06-04T13:42:47;31.90;88.00
43049;DHT22;28673;44.412;11.918;2023-06-04T13:45:13;31.70;89.30
43049;DHT22;28673;44.412;11.918;2023-06-04T13:47:39;31.30;89.50
43049;DHT22;28673;44.412;11.918;2023-06-04T13:50:05;31.20;89.70
43049;DHT22;28673;44.412;11.918;2023-06-04T13:52:32;31.10;90.40
43049;DHT22;28673;44.412;11.918;2023-06-04T13:54:57;30.90;90.40
43049;DHT22;28673;44.412;11.918;2023-06-04T13:57:27;30.70;90.60
43049;DHT22;28673;44.412;11.918;2023-06-04T13:59:53;30.40;90.50
43049;DHT22;28673;44.412;11.918;2023-06-04T14:02:19;30.20;90.60
43049;DHT22;28673;44.412;11.918;2023-06-04T14:04:46;29.80;90.80
43049;DHT22;28673;44.412;11.918;2023-06-04T14:07:12;29.50;91.30
43049;DHT22;28673;44.412;11.918;2023-06-04T14:09:38;29.30;91.70
43049;DHT22;28673;44.412;11.918;2023-06-04T14:12:04;29.00;91.90
43049;DHT22;28673;44.412;11.918;2023-06-04T14:14:31;28.70;92.50
43049;DHT22;28673;44.412;11.918;2023-06-04T14:17:02;28.50;93.90
43049;DHT22;28673;44.412;11.918;2023-06-04T14:19:28;28.10;94.70
43049;DHT22;28673;44.412;11.918;2023-06-04T14:21:54;27.70;95.10
43049;DHT22;28673;44.412;11.918;2023-06-04T14:24:20;27.40;96.20
43049;DHT22;28673;44.412;11.918;2023-06-04T14:26:46;27.00;96.80
43049;DHT22;28673;44.412;11.918;2023-06-04T14:29:12;26.60;97.60
43049;DHT22;28673;44.412;11.918;2023-06-04T14:31:39;26.10;98.20
43049;DHT22;28673;44.412;11.918;2023-06-04T14:34:05;25.80;99.10
43049;DHT22;28673;44.412;11.918;2023-06-04T14:36:32;25.50;99.70
43049;DHT22;28673;44.412;11.918;2023-06-04T14:38:58;25.30;99.90
43049;DHT22;28673;44.412;11.918;2023-06-04T14:41:24;25.00;99.90
43049;DHT22;28673;44.412;11.918;2023-06-04T14:43:50;24.80;99.90
43049;DHT22;28673;44.412;11.918;2023-06-04T14:46:16;24.60;99.90
43049;DHT22;28673;44.412;11.918;2023-06-04T14:48:42;24.60;99.90
43049;DHT22;28673;44.412;11.918;2023-06-04T14:51:09;24.50;99.90
43049;DHT22;28673;44.412;11.918;2023-06-04T14:53:35;24.40;99.90
43049;DHT22;28673;44.412;11.918;2023-06-04T14:56:05;24.30;99.90
43049;DHT22;28673;44.412;11.918;2023-06-04T14:58:31;24.30;99.90
43049;DHT22;28673;44.412;11.918;2023-06-04T15:00:58;24.20;99.90
43049;DHT22;28673;44.412;11.918;2023-06-04T15:03:25;24.10;99.90
43049;DHT22;28673;44.412;11.918;2023-06-04T15:05:52;23.90;99.90
43049;DHT22;28673;44.412;11.918;2023-06-04T15:08:19;23.80;99.90
43049;DHT22;28673;44.412;11.918;2023-06-04T15:10:45;23.70;99.90
43049;DHT22;28673;44.412;11.918;2023-06-04T15:13:11;23.70;99.90
43049;DHT22;28673;44.412;11.918;2023-06-04T15:15:37;23.60;99.90
43049;DHT22;28673;44.412;11.918;2023-06-04T15:18:03;23.50;99.90
43049;DHT22;28673;44.412;11.918;2023-06-04T15:20:32;23.40;99.90
43049;DHT22;28673;44.412;11.918;2023-06-04T15:22:58;23.30;99.90
43049;DHT22;28673;44.412;11.918;2023-06-04T15:25:24;23.20;99.90
43049;DHT22;28673;44.412;11.918;2023-06-04T15:27:50;23.20;99.90
43049;DHT22;28673;44.412;11.918;2023-06-04T15:30:16;23.10;99.90